sensor_id;sensor_type;location;lat;lon;timestamp;temperature;humidity
47354;DHT22;50657;48.830;2.282;2022-10-03T00:00:01;21.80;55.70
47354;DHT22;50657;48.830;2.282;2022-10-03T00:05:38;21.70;55.70
47354;DHT22;50657;48.830;2.282;2022-10-03T00:08:16;21.80;55.80
47354;DHT22;50657;48.830;2.282;2022-10-03T00:10:55;21.70;55.70
47354;DHT22;50657;48.830;2.282;2022-10-03T00:13:28;21.80;55.80
47354;DHT22;50657;48.830;2.282;2022-10-03T00:16:07;21.70;55.70
47354;DHT22;50657;48.830;2.282;2022-10-03T00:18:45;21.70;56.30
47354;DHT22;50657;48.830;2.282;2022-10-03T00:21:31;21.70;55.70
47354;DHT22;50657;48.830;2.282;2022-10-03T00:24:12;21.70;55.70
47354;DHT22;50657;48.830;2.282;2022-10-03T00:26:47;21.70;55.70
47354;DHT22;50657;48.830;2.282;2022-10-03T00:29:25;21.70;55.80
47354;DHT22;50657;48.830;2.282;2022-10-03T00:32:05;21.70;55.70
47354;DHT22;50657;48.830;2.282;2022-10-03T00:34:47;21.70;55.70
47354;DHT22;50657;48.830;2.282;2022-10-03T00:37:26;21.70;55.70
47354;DHT22;50657;48.830;2.282;2022-10-03T00:40:03;21.70;55.70
47354;DHT22;50657;48.830;2.282;2022-10-03T00:52:20;21.60;55.70
47354;DHT22;50657;48.830;2.282;2022-10-03T00:54:57;21.60;55.70
47354;DHT22;50657;48.830;2.282;2022-10-03T00:57:45;21.60;55.80
47354;DHT22;50657;48.830;2.282;2022-10-03T01:00:21;21.60;55.70
47354;DHT22;50657;48.830;2.282;2022-10-03T01:03:07;21.60;55.70
47354;DHT22;50657;48.830;2.282;2022-10-03T01:05:48;21.60;55.70
47354;DHT22;50657;48.830;2.282;2022-10-03T01:08:29;21.60;55.70
47354;DHT22;50657;48.830;2.282;2022-10-03T01:11:05;21.60;55.60
47354;DHT22;50657;48.830;2.282;2022-10-03T01:13:43;21.60;55.70
47354;DHT22;50657;48.830;2.282;2022-10-03T01:16:17;21.60;55.70
47354;DHT22;50657;48.830;2.282;2022-10-03T01:18:57;21.60;55.60
47354;DHT22;50657;48.830;2.282;2022-10-03T01:21:36;21.60;55.60
47354;DHT22;50657;48.830;2.282;2022-10-03T01:24:29;21.60;55.60
47354;DHT22;50657;48.830;2.282;2022-10-03T01:27:04;21.60;55.60
47354;DHT22;50657;48.830;2.282;2022-10-03T01:29:40;21.60;55.70
47354;DHT22;50657;48.830;2.282;2022-10-03T01:32:32;21.60;55.70
47354;DHT22;50657;48.830;2.282;2022-10-03T01:35:16;21.50;55.60
47354;DHT22;50657;48.830;2.282;2022-10-03T01:37:54;21.60;55.70
47354;DHT22;50657;48.830;2.282;2022-10-03T01:40:27;21.60;55.70
47354;DHT22;50657;48.830;2.282;2022-10-03T01:43:04;21.50;55.60
47354;DHT22;50657;48.830;2.282;2022-10-03T01:45:43;21.50;55.60
47354;DHT22;50657;48.830;2.282;2022-10-03T01:48:21;21.50;55.60
47354;DHT22;50657;48.830;2.282;2022-10-03T01:50:57;21.50;55.60
47354;DHT22;50657;48.830;2.282;2022-10-03T01:53:37;21.50;55.60
47354;DHT22;50657;48.830;2.282;2022-10-03T01:56:11;21.50;55.60
47354;DHT22;50657;48.830;2.282;2022-10-03T01:58:48;21.50;55.60
47354;DHT22;50657;48.830;2.282;2022-10-03T02:01:28;21.50;55.60
47354;DHT22;50657;48.830;2.282;2022-10-03T02:04:02;21.50;55.50
47354;DHT22;50657;48.830;2.282;2022-10-03T02:06:38;21.50;55.50
47354;DHT22;50657;48.830;2.282;2022-10-03T02:09:17;21.50;55.50
47354;DHT22;50657;48.830;2.282;2022-10-03T02:12:03;21.50;55.50
47354;DHT22;50657;48.830;2.282;2022-10-03T02:14:40;21.50;55.50
47354;DHT22;50657;48.830;2.282;2022-10-03T02:17:22;21.50;55.50
47354;DHT22;50657;48.830;2.282;2022-10-03T02:19:56;21.50;55.50
47354;DHT22;50657;48.830;2.282;2022-10-03T02:22:33;21.50;55.50
47354;DHT22;50657;48.830;2.282;2022-10-03T02:25:26;21.40;55.50
47354;DHT22;50657;48.830;2.282;2022-10-03T02:28:34;21.50;55.40
47354;DHT22;50657;48.830;2.282;2022-10-03T02:34:39;21.40;55.50
47354;DHT22;50657;48.830;2.282;2022-10-03T02:37:29;21.40;55.50
47354;DHT22;50657;48.830;2.282;2022-10-03T02:40:30;21.40;55.50
47354;DHT22;50657;48.830;2.282;2022-10-03T02:43:24;21.40;55.60
47354;DHT22;50657;48.830;2.282;2022-10-03T02:46:26;21.40;55.50
47354;DHT22;50657;48.830;2.282;2022-10-03T02:49:27;21.40;55.60
47354;DHT22;50657;48.830;2.282;2022-10-03T02:55:42;21.30;55.50
47354;DHT22;50657;48.830;2.282;2022-10-03T02:58:39;21.30;55.60
47354;DHT22;50657;48.830;2.282;2022-10-03T03:05:00;21.30;55.50
47354;DHT22;50657;48.830;2.282;2022-10-03T03:07:38;21.30;55.60
47354;DHT22;50657;48.830;2.282;2022-10-03T03:10:51;21.30;55.60
47354;DHT22;50657;48.830;2.282;2022-10-03T03:13:52;21.30;55.50
47354;DHT22;50657;48.830;2.282;2022-10-03T03:16:41;21.30;55.50
47354;DHT22;50657;48.830;2.282;2022-10-03T03:19:27;21.20;55.40
47354;DHT22;50657;48.830;2.282;2022-10-03T03:22:04;21.20;55.40
47354;DHT22;50657;48.830;2.282;2022-10-03T03:25:00;21.30;56.10
47354;DHT22;50657;48.830;2.282;2022-10-03T03:27:40;21.30;55.40
47354;DHT22;50657;48.830;2.282;2022-10-03T03:30:11;21.30;55.40
47354;DHT22;50657;48.830;2.282;2022-10-03T03:32:51;21.20;55.30
47354;DHT22;50657;48.830;2.282;2022-10-03T03:35:30;21.30;55.40
47354;DHT22;50657;48.830;2.282;2022-10-03T03:38:13;21.20;55.30
47354;DHT22;50657;48.830;2.282;2022-10-03T03:40:55;21.30;55.30
47354;DHT22;50657;48.830;2.282;2022-10-03T03:43:40;21.30;55.90
47354;DHT22;50657;48.830;2.282;2022-10-03T03:46:19;21.20;55.20
47354;DHT22;50657;48.830;2.282;2022-10-03T03:51:44;21.20;55.20
47354;DHT22;50657;48.830;2.282;2022-10-03T03:54:37;21.20;55.20
47354;DHT22;50657;48.830;2.282;2022-10-03T03:57:36;21.20;55.10
47354;DHT22;50657;48.830;2.282;2022-10-03T04:00:12;21.20;55.20
47354;DHT22;50657;48.830;2.282;2022-10-03T04:02:56;21.20;55.20
47354;DHT22;50657;48.830;2.282;2022-10-03T04:05:34;21.20;55.80
47354;DHT22;50657;48.830;2.282;2022-10-03T04:08:26;21.20;55.20
47354;DHT22;50657;48.830;2.282;2022-10-03T04:11:10;21.20;55.20
47354;DHT22;50657;48.830;2.282;2022-10-03T04:14:05;21.20;55.20
47354;DHT22;50657;48.830;2.282;2022-10-03T04:16:55;21.20;55.10
47354;DHT22;50657;48.830;2.282;2022-10-03T04:19:58;21.20;55.10
47354;DHT22;50657;48.830;2.282;2022-10-03T04:22:42;21.20;55.10
47354;DHT22;50657;48.830;2.282;2022-10-03T04:25:25;21.20;55.10
47354;DHT22;50657;48.830;2.282;2022-10-03T04:31:10;21.20;55.00
47354;DHT22;50657;48.830;2.282;2022-10-03T04:34:02;21.20;55.10
47354;DHT22;50657;48.830;2.282;2022-10-03T04:39:36;21.30;55.10
47354;DHT22;50657;48.830;2.282;2022-10-03T04:42:23;21.30;55.10
47354;DHT22;50657;48.830;2.282;2022-10-03T04:45:11;21.30;55.10
47354;DHT22;50657;48.830;2.282;2022-10-03T04:47:49;21.30;55.00
47354;DHT22;50657;48.830;2.282;2022-10-03T04:50:30;21.30;55.00
47354;DHT22;50657;48.830;2.282;2022-10-03T04:53:13;21.30;55.00
47354;DHT22;50657;48.830;2.282;2022-10-03T04:55:47;21.30;54.90
47354;DHT22;50657;48.830;2.282;2022-10-03T04:58:28;21.30;55.00
47354;DHT22;50657;48.830;2.282;2022-10-03T05:01:05;21.30;54.90
47354;DHT22;50657;48.830;2.282;2022-10-03T05:06:32;21.30;54.90
47354;DHT22;50657;48.830;2.282;2022-10-03T05:09:15;21.30;54.90
47354;DHT22;50657;48.830;2.282;2022-10-03T05:11:55;21.30;54.80
47354;DHT22;50657;48.830;2.282;2022-10-03T05:14:32;21.30;54.80
47354;DHT22;50657;48.830;2.282;2022-10-03T05:17:10;21.30;54.80
47354;DHT22;50657;48.830;2.282;2022-10-03T05:19:59;21.30;54.80
47354;DHT22;50657;48.830;2.282;2022-10-03T05:22:40;21.40;54.80
47354;DHT22;50657;48.830;2.282;2022-10-03T05:25:21;21.30;54.80
47354;DHT22;50657;48.830;2.282;2022-10-03T05:28:00;21.30;54.80
47354;DHT22;50657;48.830;2.282;2022-10-03T05:30:38;21.30;54.80
47354;DHT22;50657;48.830;2.282;2022-10-03T05:33:14;21.30;54.80
47354;DHT22;50657;48.830;2.282;2022-10-03T05:35:51;21.30;54.80
47354;DHT22;50657;48.830;2.282;2022-10-03T05:38:49;21.30;54.80
47354;DHT22;50657;48.830;2.282;2022-10-03T05:41:27;21.30;54.70
47354;DHT22;50657;48.830;2.282;2022-10-03T05:44:02;21.30;54.80
47354;DHT22;50657;48.830;2.282;2022-10-03T05:46:50;21.30;54.70
47354;DHT22;50657;48.830;2.282;2022-10-03T05:49:35;21.30;54.70
47354;DHT22;50657;48.830;2.282;2022-10-03T05:52:37;21.20;54.70
47354;DHT22;50657;48.830;2.282;2022-10-03T05:55:27;21.30;54.80
47354;DHT22;50657;48.830;2.282;2022-10-03T05:58:19;21.20;54.80
47354;DHT22;50657;48.830;2.282;2022-10-03T06:01:04;21.20;54.80
47354;DHT22;50657;48.830;2.282;2022-10-03T06:06:45;21.20;54.90
47354;DHT22;50657;48.830;2.282;2022-10-03T06:09:45;21.20;54.90
47354;DHT22;50657;48.830;2.282;2022-10-03T06:12:19;21.20;55.00
47354;DHT22;50657;48.830;2.282;2022-10-03T06:15:11;21.10;55.00
47354;DHT22;50657;48.830;2.282;2022-10-03T06:17:57;21.20;55.00
47354;DHT22;50657;48.830;2.282;2022-10-03T06:30:16;21.10;55.00
47354;DHT22;50657;48.830;2.282;2022-10-03T06:36:23;21.10;55.10
47354;DHT22;50657;48.830;2.282;2022-10-03T06:42:10;21.10;55.10
47354;DHT22;50657;48.830;2.282;2022-10-03T06:45:01;21.00;55.10
47354;DHT22;50657;48.830;2.282;2022-10-03T06:47:48;21.00;55.10
47354;DHT22;50657;48.830;2.282;2022-10-03T06:50:50;21.00;55.10
47354;DHT22;50657;48.830;2.282;2022-10-03T06:53:36;21.00;55.00
47354;DHT22;50657;48.830;2.282;2022-10-03T06:59:40;21.00;55.00
47354;DHT22;50657;48.830;2.282;2022-10-03T07:05:43;21.00;55.00
47354;DHT22;50657;48.830;2.282;2022-10-03T07:11:38;21.00;55.00
47354;DHT22;50657;48.830;2.282;2022-10-03T07:17:37;21.00;55.50
47354;DHT22;50657;48.830;2.282;2022-10-03T07:20:29;21.00;55.00
47354;DHT22;50657;48.830;2.282;2022-10-03T07:23:27;21.00;54.90
47354;DHT22;50657;48.830;2.282;2022-10-03T07:26:37;21.00;54.80
47354;DHT22;50657;48.830;2.282;2022-10-03T07:29:26;21.00;54.80
47354;DHT22;50657;48.830;2.282;2022-10-03T07:32:23;21.00;54.80
47354;DHT22;50657;48.830;2.282;2022-10-03T07:35:23;21.00;54.80
47354;DHT22;50657;48.830;2.282;2022-10-03T07:38:59;21.00;54.70
47354;DHT22;50657;48.830;2.282;2022-10-03T07:41:56;21.00;54.70
47354;DHT22;50657;48.830;2.282;2022-10-03T07:51:07;21.00;54.50
47354;DHT22;50657;48.830;2.282;2022-10-03T07:57:01;21.00;54.60
47354;DHT22;50657;48.830;2.282;2022-10-03T08:03:06;21.00;54.50
47354;DHT22;50657;48.830;2.282;2022-10-03T08:05:49;21.00;54.40
47354;DHT22;50657;48.830;2.282;2022-10-03T08:08:47;21.00;54.40
47354;DHT22;50657;48.830;2.282;2022-10-03T08:11:37;21.10;54.40
47354;DHT22;50657;48.830;2.282;2022-10-03T08:14:16;21.10;54.40
47354;DHT22;50657;48.830;2.282;2022-10-03T08:20:04;21.10;54.30
47354;DHT22;50657;48.830;2.282;2022-10-03T08:22:40;21.10;54.30
47354;DHT22;50657;48.830;2.282;2022-10-03T08:25:37;21.00;54.30
47354;DHT22;50657;48.830;2.282;2022-10-03T08:28:32;21.10;54.30
47354;DHT22;50657;48.830;2.282;2022-10-03T08:34:40;21.20;54.20
47354;DHT22;50657;48.830;2.282;2022-10-03T08:37:34;21.20;54.20
47354;DHT22;50657;48.830;2.282;2022-10-03T08:43:38;21.30;54.10
47354;DHT22;50657;48.830;2.282;2022-10-03T08:46:45;21.30;54.00
47354;DHT22;50657;48.830;2.282;2022-10-03T08:49:34;21.30;54.00
47354;DHT22;50657;48.830;2.282;2022-10-03T08:52:17;21.40;53.90
47354;DHT22;50657;48.830;2.282;2022-10-03T08:55:13;21.40;53.70
47354;DHT22;50657;48.830;2.282;2022-10-03T08:58:05;21.40;53.60
47354;DHT22;50657;48.830;2.282;2022-10-03T09:00:58;21.40;53.40
47354;DHT22;50657;48.830;2.282;2022-10-03T09:04:10;21.50;53.40
47354;DHT22;50657;48.830;2.282;2022-10-03T09:10:07;21.50;53.30
47354;DHT22;50657;48.830;2.282;2022-10-03T09:19:06;21.50;53.10
47354;DHT22;50657;48.830;2.282;2022-10-03T09:22:04;21.50;53.20
47354;DHT22;50657;48.830;2.282;2022-10-03T09:27:53;21.50;53.00
47354;DHT22;50657;48.830;2.282;2022-10-03T09:30:45;21.50;52.90
47354;DHT22;50657;48.830;2.282;2022-10-03T09:33:49;21.50;52.80
47354;DHT22;50657;48.830;2.282;2022-10-03T09:40:15;21.60;53.30
47354;DHT22;50657;48.830;2.282;2022-10-03T09:46:05;21.60;52.70
47354;DHT22;50657;48.830;2.282;2022-10-03T09:51:41;21.60;52.60
47354;DHT22;50657;48.830;2.282;2022-10-03T09:54:42;21.60;52.60
47354;DHT22;50657;48.830;2.282;2022-10-03T09:57:49;21.60;52.50
47354;DHT22;50657;48.830;2.282;2022-10-03T10:00:21;21.60;52.50
47354;DHT22;50657;48.830;2.282;2022-10-03T10:06:28;21.60;52.30
47354;DHT22;50657;48.830;2.282;2022-10-03T10:09:31;21.70;52.50
47354;DHT22;50657;48.830;2.282;2022-10-03T10:12:44;21.70;52.40
47354;DHT22;50657;48.830;2.282;2022-10-03T10:15:43;21.70;52.30
47354;DHT22;50657;48.830;2.282;2022-10-03T10:25:04;21.70;52.10
47354;DHT22;50657;48.830;2.282;2022-10-03T10:27:59;21.80;52.10
47354;DHT22;50657;48.830;2.282;2022-10-03T10:30:57;21.80;52.20
47354;DHT22;50657;48.830;2.282;2022-10-03T10:34:15;21.80;52.20
47354;DHT22;50657;48.830;2.282;2022-10-03T10:43:27;21.90;52.10
47354;DHT22;50657;48.830;2.282;2022-10-03T10:46:27;21.90;52.00
47354;DHT22;50657;48.830;2.282;2022-10-03T10:52:46;22.00;51.90
47354;DHT22;50657;48.830;2.282;2022-10-03T10:56:00;22.00;51.90
47354;DHT22;50657;48.830;2.282;2022-10-03T11:02:31;22.00;51.80
47354;DHT22;50657;48.830;2.282;2022-10-03T11:05:41;22.00;51.70
47354;DHT22;50657;48.830;2.282;2022-10-03T11:14:56;22.10;51.50
47354;DHT22;50657;48.830;2.282;2022-10-03T11:17:51;22.10;51.30
47354;DHT22;50657;48.830;2.282;2022-10-03T11:23:56;22.20;51.10
47354;DHT22;50657;48.830;2.282;2022-10-03T11:30:05;22.20;50.80
47354;DHT22;50657;48.830;2.282;2022-10-03T11:36:03;22.30;50.60
47354;DHT22;50657;48.830;2.282;2022-10-03T11:38:41;22.30;50.50
47354;DHT22;50657;48.830;2.282;2022-10-03T11:41:21;22.40;50.50
47354;DHT22;50657;48.830;2.282;2022-10-03T11:44:11;22.40;50.30
47354;DHT22;50657;48.830;2.282;2022-10-03T11:46:50;22.40;50.30
47354;DHT22;50657;48.830;2.282;2022-10-03T11:49:37;22.40;50.00
47354;DHT22;50657;48.830;2.282;2022-10-03T11:52:20;22.40;49.80
47354;DHT22;50657;48.830;2.282;2022-10-03T11:55:04;22.50;49.80
47354;DHT22;50657;48.830;2.282;2022-10-03T11:57:34;22.50;49.90
47354;DHT22;50657;48.830;2.282;2022-10-03T12:00:05;22.50;50.00
47354;DHT22;50657;48.830;2.282;2022-10-03T12:03:05;22.50;49.70
47354;DHT22;50657;48.830;2.282;2022-10-03T12:05:46;22.50;49.30
47354;DHT22;50657;48.830;2.282;2022-10-03T12:08:20;22.50;49.70
47354;DHT22;50657;48.830;2.282;2022-10-03T12:11:10;22.60;49.10
47354;DHT22;50657;48.830;2.282;2022-10-03T12:13:57;22.60;49.00
47354;DHT22;50657;48.830;2.282;2022-10-03T12:16:29;22.60;49.30
47354;DHT22;50657;48.830;2.282;2022-10-03T12:19:04;22.60;49.60
47354;DHT22;50657;48.830;2.282;2022-10-03T12:21:47;22.70;49.80
47354;DHT22;50657;48.830;2.282;2022-10-03T12:24:24;22.70;50.10
47354;DHT22;50657;48.830;2.282;2022-10-03T12:27:04;22.70;50.20
47354;DHT22;50657;48.830;2.282;2022-10-03T12:29:35;22.80;50.10
47354;DHT22;50657;48.830;2.282;2022-10-03T12:32:15;22.80;50.30
47354;DHT22;50657;48.830;2.282;2022-10-03T12:34:49;22.90;50.20
47354;DHT22;50657;48.830;2.282;2022-10-03T12:37:43;23.00;50.10
47354;DHT22;50657;48.830;2.282;2022-10-03T12:40:18;23.20;49.90
47354;DHT22;50657;48.830;2.282;2022-10-03T12:43:00;23.30;49.90
47354;DHT22;50657;48.830;2.282;2022-10-03T12:45:33;23.40;49.60
47354;DHT22;50657;48.830;2.282;2022-10-03T12:48:22;23.50;49.20
47354;DHT22;50657;48.830;2.282;2022-10-03T12:51:00;23.70;48.80
47354;DHT22;50657;48.830;2.282;2022-10-03T12:53:34;23.80;48.60
47354;DHT22;50657;48.830;2.282;2022-10-03T12:56:13;24.00;48.40
47354;DHT22;50657;48.830;2.282;2022-10-03T12:58:49;24.10;48.10
47354;DHT22;50657;48.830;2.282;2022-10-03T13:01:26;24.30;47.80
47354;DHT22;50657;48.830;2.282;2022-10-03T13:03:56;24.50;47.70
47354;DHT22;50657;48.830;2.282;2022-10-03T13:06:37;24.60;47.50
47354;DHT22;50657;48.830;2.282;2022-10-03T13:09:15;24.80;47.30
47354;DHT22;50657;48.830;2.282;2022-10-03T13:11:54;24.90;47.00
47354;DHT22;50657;48.830;2.282;2022-10-03T13:14:33;25.00;46.90
47354;DHT22;50657;48.830;2.282;2022-10-03T13:17:13;25.10;46.50
47354;DHT22;50657;48.830;2.282;2022-10-03T13:19:57;25.30;46.30
47354;DHT22;50657;48.830;2.282;2022-10-03T13:22:37;25.40;45.90
47354;DHT22;50657;48.830;2.282;2022-10-03T13:25:13;25.60;45.40
47354;DHT22;50657;48.830;2.282;2022-10-03T13:27:46;25.70;44.80
47354;DHT22;50657;48.830;2.282;2022-10-03T13:30:19;25.80;44.70
47354;DHT22;50657;48.830;2.282;2022-10-03T13:32:51;25.90;44.30
47354;DHT22;50657;48.830;2.282;2022-10-03T13:35:25;25.90;44.20
47354;DHT22;50657;48.830;2.282;2022-10-03T13:41:25;26.00;43.70
47354;DHT22;50657;48.830;2.282;2022-10-03T13:43:59;26.10;43.50
47354;DHT22;50657;48.830;2.282;2022-10-03T13:46:34;26.20;43.50
47354;DHT22;50657;48.830;2.282;2022-10-03T13:49:10;26.40;43.70
47354;DHT22;50657;48.830;2.282;2022-10-03T13:51:47;26.50;43.30
47354;DHT22;50657;48.830;2.282;2022-10-03T13:54:27;26.60;43.10
47354;DHT22;50657;48.830;2.282;2022-10-03T13:57:06;26.60;42.80
47354;DHT22;50657;48.830;2.282;2022-10-03T13:59:49;26.70;42.60
47354;DHT22;50657;48.830;2.282;2022-10-03T14:02:38;26.90;42.50
47354;DHT22;50657;48.830;2.282;2022-10-03T14:05:28;27.00;42.40
47354;DHT22;50657;48.830;2.282;2022-10-03T14:08:06;27.00;42.00
47354;DHT22;50657;48.830;2.282;2022-10-03T14:13:36;27.30;42.00
47354;DHT22;50657;48.830;2.282;2022-10-03T14:16:12;27.40;41.90
47354;DHT22;50657;48.830;2.282;2022-10-03T14:18:49;27.50;41.70
47354;DHT22;50657;48.830;2.282;2022-10-03T14:21:45;27.50;41.50
47354;DHT22;50657;48.830;2.282;2022-10-03T14:24:33;27.50;41.40
47354;DHT22;50657;48.830;2.282;2022-10-03T14:27:12;27.50;41.60
47354;DHT22;50657;48.830;2.282;2022-10-03T14:29:52;27.40;41.30
47354;DHT22;50657;48.830;2.282;2022-10-03T14:32:27;27.20;41.30
47354;DHT22;50657;48.830;2.282;2022-10-03T14:35:02;27.10;41.70
47354;DHT22;50657;48.830;2.282;2022-10-03T14:37:38;26.90;42.00
47354;DHT22;50657;48.830;2.282;2022-10-03T14:40:15;26.90;42.10
47354;DHT22;50657;48.830;2.282;2022-10-03T14:42:56;26.80;42.30
47354;DHT22;50657;48.830;2.282;2022-10-03T14:45:27;26.80;42.30
47354;DHT22;50657;48.830;2.282;2022-10-03T14:47:59;26.70;42.70
47354;DHT22;50657;48.830;2.282;2022-10-03T14:50:30;26.70;42.90
47354;DHT22;50657;48.830;2.282;2022-10-03T14:53:00;26.70;43.20
47354;DHT22;50657;48.830;2.282;2022-10-03T14:55:31;26.70;43.20
47354;DHT22;50657;48.830;2.282;2022-10-03T14:58:03;26.60;43.20
47354;DHT22;50657;48.830;2.282;2022-10-03T15:00:36;26.70;43.30
47354;DHT22;50657;48.830;2.282;2022-10-03T15:06:21;26.70;43.40
47354;DHT22;50657;48.830;2.282;2022-10-03T15:09:00;26.70;43.20
47354;DHT22;50657;48.830;2.282;2022-10-03T15:11:31;26.70;43.40
47354;DHT22;50657;48.830;2.282;2022-10-03T15:14:04;26.70;43.10
47354;DHT22;50657;48.830;2.282;2022-10-03T15:16:34;26.70;43.20
47354;DHT22;50657;48.830;2.282;2022-10-03T15:19:07;26.80;43.30
47354;DHT22;50657;48.830;2.282;2022-10-03T15:21:34;26.70;43.10
47354;DHT22;50657;48.830;2.282;2022-10-03T15:24:04;26.80;43.20
47354;DHT22;50657;48.830;2.282;2022-10-03T15:26:34;26.80;43.10
47354;DHT22;50657;48.830;2.282;2022-10-03T15:29:05;26.80;43.20
47354;DHT22;50657;48.830;2.282;2022-10-03T15:31:34;26.80;43.20
47354;DHT22;50657;48.830;2.282;2022-10-03T15:34:05;26.70;43.20
47354;DHT22;50657;48.830;2.282;2022-10-03T15:36:36;26.80;43.30
47354;DHT22;50657;48.830;2.282;2022-10-03T15:39:06;26.80;43.40
47354;DHT22;50657;48.830;2.282;2022-10-03T15:41:50;26.70;43.40
47354;DHT22;50657;48.830;2.282;2022-10-03T15:44:23;26.80;43.40
47354;DHT22;50657;48.830;2.282;2022-10-03T15:46:56;26.80;43.40
47354;DHT22;50657;48.830;2.282;2022-10-03T15:49:29;26.70;43.40
47354;DHT22;50657;48.830;2.282;2022-10-03T15:52:13;26.80;43.30
47354;DHT22;50657;48.830;2.282;2022-10-03T15:54:45;26.70;43.30
47354;DHT22;50657;48.830;2.282;2022-10-03T15:57:18;26.80;43.30
47354;DHT22;50657;48.830;2.282;2022-10-03T15:59:53;26.70;43.20
47354;DHT22;50657;48.830;2.282;2022-10-03T16:02:28;26.70;43.10
47354;DHT22;50657;48.830;2.282;2022-10-03T16:04:57;26.80;43.10
47354;DHT22;50657;48.830;2.282;2022-10-03T16:07:32;26.70;43.10
47354;DHT22;50657;48.830;2.282;2022-10-03T16:10:13;26.80;43.10
47354;DHT22;50657;48.830;2.282;2022-10-03T16:13:06;26.80;43.60
47354;DHT22;50657;48.830;2.282;2022-10-03T16:15:56;26.70;43.00
47354;DHT22;50657;48.830;2.282;2022-10-03T16:19:05;26.70;43.10
47354;DHT22;50657;48.830;2.282;2022-10-03T16:21:43;26.60;43.10
47354;DHT22;50657;48.830;2.282;2022-10-03T16:24:19;26.60;43.40
47354;DHT22;50657;48.830;2.282;2022-10-03T16:26:52;26.50;43.40
47354;DHT22;50657;48.830;2.282;2022-10-03T16:29:23;26.50;43.40
47354;DHT22;50657;48.830;2.282;2022-10-03T16:31:56;26.40;43.40
47354;DHT22;50657;48.830;2.282;2022-10-03T16:34:26;26.30;43.40
47354;DHT22;50657;48.830;2.282;2022-10-03T16:36:56;26.20;43.60
47354;DHT22;50657;48.830;2.282;2022-10-03T16:39:29;26.20;43.60
47354;DHT22;50657;48.830;2.282;2022-10-03T16:41:59;26.10;43.60
47354;DHT22;50657;48.830;2.282;2022-10-03T16:44:35;26.00;43.80
47354;DHT22;50657;48.830;2.282;2022-10-03T16:47:06;26.00;44.00
47354;DHT22;50657;48.830;2.282;2022-10-03T16:49:40;25.90;44.20
47354;DHT22;50657;48.830;2.282;2022-10-03T16:52:30;25.80;44.20
47354;DHT22;50657;48.830;2.282;2022-10-03T16:55:02;25.70;44.30
47354;DHT22;50657;48.830;2.282;2022-10-03T16:57:38;25.70;44.40
47354;DHT22;50657;48.830;2.282;2022-10-03T17:00:14;25.70;44.50
47354;DHT22;50657;48.830;2.282;2022-10-03T17:02:44;25.60;44.70
47354;DHT22;50657;48.830;2.282;2022-10-03T17:05:13;25.50;44.70
47354;DHT22;50657;48.830;2.282;2022-10-03T17:07:43;25.40;42.90
47354;DHT22;50657;48.830;2.282;2022-10-03T17:10:34;25.00;42.10
47354;DHT22;50657;48.830;2.282;2022-10-03T17:13:09;24.60;42.50
47354;DHT22;50657;48.830;2.282;2022-10-03T17:15:44;24.30;42.90
47354;DHT22;50657;48.830;2.282;2022-10-03T17:18:22;24.10;43.10
47354;DHT22;50657;48.830;2.282;2022-10-03T17:20:53;23.80;43.20
47354;DHT22;50657;48.830;2.282;2022-10-03T17:23:27;23.50;43.50
47354;DHT22;50657;48.830;2.282;2022-10-03T17:26:03;23.30;43.70
47354;DHT22;50657;48.830;2.282;2022-10-03T17:28:37;23.10;43.90
47354;DHT22;50657;48.830;2.282;2022-10-03T17:31:06;22.90;44.20
47354;DHT22;50657;48.830;2.282;2022-10-03T17:33:45;22.70;44.60
47354;DHT22;50657;48.830;2.282;2022-10-03T17:36:37;22.50;44.90
47354;DHT22;50657;48.830;2.282;2022-10-03T17:39:12;22.30;45.20
47354;DHT22;50657;48.830;2.282;2022-10-03T17:41:49;22.10;45.60
47354;DHT22;50657;48.830;2.282;2022-10-03T17:44:25;22.00;46.00
47354;DHT22;50657;48.830;2.282;2022-10-03T17:47:01;21.80;46.30
47354;DHT22;50657;48.830;2.282;2022-10-03T17:49:44;21.60;46.50
47354;DHT22;50657;48.830;2.282;2022-10-03T17:52:16;21.50;46.90
47354;DHT22;50657;48.830;2.282;2022-10-03T17:54:46;21.40;47.20
47354;DHT22;50657;48.830;2.282;2022-10-03T17:57:20;21.20;47.30
47354;DHT22;50657;48.830;2.282;2022-10-03T17:59:53;21.10;47.70
47354;DHT22;50657;48.830;2.282;2022-10-03T18:02:28;21.00;48.00
47354;DHT22;50657;48.830;2.282;2022-10-03T18:05:02;20.90;48.30
47354;DHT22;50657;48.830;2.282;2022-10-03T18:07:32;20.80;48.50
47354;DHT22;50657;48.830;2.282;2022-10-03T18:10:01;20.70;48.70
47354;DHT22;50657;48.830;2.282;2022-10-03T18:12:32;20.60;48.90
47354;DHT22;50657;48.830;2.282;2022-10-03T18:18:43;20.50;49.40
47354;DHT22;50657;48.830;2.282;2022-10-03T18:21:23;20.40;49.50
47354;DHT22;50657;48.830;2.282;2022-10-03T18:24:10;20.30;50.10
47354;DHT22;50657;48.830;2.282;2022-10-03T18:26:41;20.30;50.50
47354;DHT22;50657;48.830;2.282;2022-10-03T18:29:23;20.30;51.00
47354;DHT22;50657;48.830;2.282;2022-10-03T18:31:55;20.30;51.20
47354;DHT22;50657;48.830;2.282;2022-10-03T18:34:26;20.20;51.40
47354;DHT22;50657;48.830;2.282;2022-10-03T18:37:12;20.20;51.50
47354;DHT22;50657;48.830;2.282;2022-10-03T18:39:43;20.10;52.10
47354;DHT22;50657;48.830;2.282;2022-10-03T18:42:20;20.10;51.70
47354;DHT22;50657;48.830;2.282;2022-10-03T18:44:48;20.10;51.70
47354;DHT22;50657;48.830;2.282;2022-10-03T18:47:19;20.10;51.70
47354;DHT22;50657;48.830;2.282;2022-10-03T18:49:55;20.00;51.70
47354;DHT22;50657;48.830;2.282;2022-10-03T18:52:35;20.00;51.80
47354;DHT22;50657;48.830;2.282;2022-10-03T18:55:05;20.00;51.80
47354;DHT22;50657;48.830;2.282;2022-10-03T18:57:45;19.90;52.50
47354;DHT22;50657;48.830;2.282;2022-10-03T19:00:16;20.00;52.10
47354;DHT22;50657;48.830;2.282;2022-10-03T19:02:49;19.90;52.10
47354;DHT22;50657;48.830;2.282;2022-10-03T19:05:20;19.80;52.20
47354;DHT22;50657;48.830;2.282;2022-10-03T19:07:53;19.80;52.40
47354;DHT22;50657;48.830;2.282;2022-10-03T19:10:32;19.90;53.00
47354;DHT22;50657;48.830;2.282;2022-10-03T19:13:08;20.00;53.20
47354;DHT22;50657;48.830;2.282;2022-10-03T19:16:01;20.10;53.30
47354;DHT22;50657;48.830;2.282;2022-10-03T19:18:39;20.30;53.40
47354;DHT22;50657;48.830;2.282;2022-10-03T19:21:11;20.40;53.50
47354;DHT22;50657;48.830;2.282;2022-10-03T19:23:45;20.50;53.50
47354;DHT22;50657;48.830;2.282;2022-10-03T19:26:19;20.60;53.10
47354;DHT22;50657;48.830;2.282;2022-10-03T19:28:48;20.70;53.30
47354;DHT22;50657;48.830;2.282;2022-10-03T19:31:20;20.80;53.20
47354;DHT22;50657;48.830;2.282;2022-10-03T19:33:51;20.80;53.00
47354;DHT22;50657;48.830;2.282;2022-10-03T19:36:21;21.00;53.10
47354;DHT22;50657;48.830;2.282;2022-10-03T19:38:51;21.00;53.00
47354;DHT22;50657;48.830;2.282;2022-10-03T19:41:26;21.10;53.00
47354;DHT22;50657;48.830;2.282;2022-10-03T19:43:55;21.20;53.00